Arar, Saudi Arabia

10:03 AM AST on October 24, 2014 (GMT +0300)
Arar | Change Station
CLOSE
Current Station
Airport
Location: Arar,
Elevation: 1821 ft
Nearby Weather Stations

Elev 1821 ft 30.91 °N, 41.14 °E | Updated 1 hour ago

Clear
Clear
72 °F
Feels Like 72 °F
N
7
Wind Variable Wind from North

Today
High -- | Low -- °F
--% Chance of Precip.
Yesterday
High -- | Low -- °F
Precip. -- in
6:24 AM 5:34 PM
New Moon, 0% visible
Pressure 30.04 in
Visibility -9999.0 miles
Clouds
Dew Point 54 °F
Humidity 53%
Rainfall 0.00 in
Snow Depth Not available.
UV Not available.
Pollen Not available.
Air Quality Not available.
Flu Activity Not available.
METAR OERR 240600Z 36006KT CAVOK 22/12 Q1017 NOSIG

More Conditions Fewer Conditions

Pressure 30.04 in
Visibility -9999.0 miles
Clouds
Dew Point 54 °F
Humidity 53%
Rainfall 0.00 in
Snow Depth Not available.
UV Not available.
Pollen Not available.
Air Quality Not available.
Flu Activity Not available.
METAR OERR 240600Z 36006KT CAVOK 22/12 Q1017 NOSIG

More Conditions Fewer Conditions

10-Day Weather Forecast

Almanac

Astronomy

Oct. 24, 2014 Rise Set
Actual Time 6:24 AM AST 5:34 PM AST
Civil Twilight 5:59 AM AST 5:59 PM AST
Nautical Twilight 5:31 AM AST 6:27 PM AST
Astronomical Twilight 5:03 AM AST 6:55 PM AST
Moon 6:40 AM AST 6:02 PM AST
Length of Visible Light 11h 59m
Length of Day
11h 10m
Tomorrow will be 1m 43s shorter.
New Moon, 0% of the Moon is Illuminated
Today
New Moon
Oct 30
First Quarter
Nov 6
Full
Nov 14
Last Quarter
Nov 22
New

Yesterday's Extremes

Country Highs Country Lows

Community

WunderPhotos

Upload Photos

1,764,510 photos uploaded!

WunderBlogs® & News

Nearby

Snow Depth

Not available.

Earthquake Activity

City Distance Mag. Time & Date
No recent earthquake activity has been reported nearby.
Minimum magnitude displayed is 2.5.

Coastal Water Temperatures

Place Temperature
No Stations Reporting

Nearby Weather Stations